createdAt,value
2022-09-21T00:00:12.730Z,27.07
2022-09-21T00:00:42.849Z,27.07
2022-09-21T00:01:13.029Z,27.06
2022-09-21T00:01:43.015Z,27.07
2022-09-21T00:02:13.044Z,27.06
2022-09-21T00:02:43.012Z,27.03
2022-09-21T00:03:13.137Z,27.06
2022-09-21T00:03:43.128Z,27.07
2022-09-21T00:04:13.125Z,27.06
2022-09-21T00:04:43.141Z,27.06
2022-09-21T00:05:13.132Z,27.05
2022-09-21T00:05:43.253Z,27.03
2022-09-21T00:06:13.363Z,27.06
2022-09-21T00:06:43.449Z,27.06
2022-09-21T00:07:13.522Z,27.05
2022-09-21T00:07:43.613Z,27.06
2022-09-21T00:08:13.691Z,27.05
2022-09-21T00:08:43.782Z,27.06
2022-09-21T00:09:13.858Z,27.06
2022-09-21T00:09:43.967Z,27.03
2022-09-21T00:10:14.022Z,27.03
2022-09-21T00:10:44.104Z,27.05
2022-09-21T00:11:14.191Z,27.03
2022-09-21T00:11:44.275Z,27.07
2022-09-21T00:12:14.353Z,27.06
2022-09-21T00:12:44.444Z,27.02
2022-09-21T00:13:14.523Z,27.03
2022-09-21T00:13:44.604Z,27.05
2022-09-21T00:14:14.678Z,27.02
2022-09-21T00:14:44.757Z,27.02
2022-09-21T00:15:14.835Z,27.02
2022-09-21T00:15:44.919Z,27.05
2022-09-21T00:16:15.083Z,27.05
2022-09-21T00:16:45.136Z,27.02
2022-09-21T00:17:15.126Z,27.02
2022-09-21T00:17:45.123Z,27.03
2022-09-21T00:18:15.113Z,27.03
2022-09-21T00:18:45.233Z,27.03
2022-09-21T00:19:15.224Z,27.02
2022-09-21T00:19:45.219Z,27.03
2022-09-21T00:20:15.334Z,27.03
2022-09-21T00:20:45.338Z,27.03
2022-09-21T00:21:15.335Z,27.06
2022-09-21T00:21:45.486Z,27.05
2022-09-21T00:22:15.475Z,27.01
2022-09-21T00:22:45.476Z,27.02
2022-09-21T00:23:15.586Z,27.02
2022-09-21T00:23:45.586Z,27.02
2022-09-21T00:24:15.584Z,27.02
2022-09-21T00:24:45.719Z,27.02
2022-09-21T00:25:15.814Z,27.03
2022-09-21T00:25:45.812Z,27.01
2022-09-21T00:26:15.924Z,27.03
2022-09-21T00:26:46.052Z,27.01
2022-09-21T00:27:16.044Z,27.02
2022-09-21T00:27:46.156Z,27.02
2022-09-21T00:28:16.275Z,27.02
2022-09-21T00:28:46.269Z,27.02
2022-09-21T00:29:16.381Z,27.01
2022-09-21T00:29:46.376Z,27.03
2022-09-21T00:30:16.374Z,27.03
2022-09-21T00:30:46.497Z,27.03
2022-09-21T00:31:16.664Z,27.01
2022-09-21T00:31:46.711Z,27.03
2022-09-21T00:32:16.669Z,27.02
2022-09-21T00:32:46.668Z,27.02
2022-09-21T00:33:16.790Z,27.03
2022-09-21T00:33:46.793Z,27.01
2022-09-21T00:34:16.910Z,27.03
2022-09-21T00:34:46.907Z,27.02
2022-09-21T00:35:17.025Z,26.99
2022-09-21T00:35:47.141Z,26.99
2022-09-21T00:36:17.263Z,27.01
2022-09-21T00:36:47.381Z,27.01
2022-09-21T00:37:17.376Z,27.01
2022-09-21T00:37:47.373Z,27.02
2022-09-21T00:38:17.491Z,26.99
2022-09-21T00:38:47.604Z,26.98
2022-09-21T00:39:17.724Z,26.98
2022-09-21T00:39:47.866Z,27.02
2022-09-21T00:40:17.996Z,26.99
2022-09-21T00:40:47.977Z,26.98
2022-09-21T00:41:17.972Z,26.98
2022-09-21T00:41:48.089Z,26.99
2022-09-21T00:42:18.204Z,27.01
2022-09-21T00:42:48.205Z,27.01
2022-09-21T00:43:18.322Z,26.99
2022-09-21T00:43:48.440Z,26.99
2022-09-21T00:44:18.431Z,26.99
2022-09-21T00:44:48.554Z,26.99
2022-09-21T00:45:18.566Z,26.99
2022-09-21T00:45:48.607Z,26.98
2022-09-21T00:46:18.588Z,26.99
2022-09-21T00:46:48.704Z,26.98
2022-09-21T00:47:18.700Z,26.98
2022-09-21T00:47:48.817Z,27.01
2022-09-21T00:48:18.936Z,26.98
2022-09-21T00:48:48.928Z,26.98
2022-09-21T00:49:19.045Z,26.99
2022-09-21T00:49:49.163Z,27.01
2022-09-21T00:50:19.165Z,26.99
2022-09-21T00:50:49.164Z,26.99
2022-09-21T00:51:19.160Z,26.99
2022-09-21T00:51:49.160Z,26.99
2022-09-21T00:52:19.156Z,26.98
2022-09-21T00:52:49.275Z,26.99
2022-09-21T00:53:19.268Z,26.98
2022-09-21T00:53:49.389Z,26.96
2022-09-21T00:54:19.503Z,26.96
2022-09-21T00:54:49.501Z,26.96
2022-09-21T00:55:19.575Z,26.99
2022-09-21T00:55:49.531Z,26.98
2022-09-21T00:56:19.649Z,26.96
2022-09-21T00:56:49.889Z,26.99
2022-09-21T00:57:19.876Z,26.98
2022-09-21T00:57:49.871Z,26.96
2022-09-21T00:58:19.873Z,26.98
2022-09-21T00:58:49.988Z,26.96
2022-09-21T00:59:21.972Z,26.96
2022-09-21T00:59:50.066Z,26.96
2022-09-21T01:00:20.060Z,26.95
2022-09-21T01:00:50.230Z,26.96
2022-09-21T01:01:20.277Z,26.95
2022-09-21T01:01:50.297Z,26.95
2022-09-21T01:02:20.299Z,26.96
2022-09-21T01:02:50.270Z,26.95
2022-09-21T01:03:20.384Z,26.99
2022-09-21T01:03:50.384Z,26.95
2022-09-21T01:04:20.502Z,26.96
2022-09-21T01:04:50.503Z,26.95
2022-09-21T01:05:20.505Z,26.95
2022-09-21T01:05:50.500Z,26.96
2022-09-21T01:06:20.603Z,26.96
2022-09-21T01:06:50.686Z,26.95
2022-09-21T01:07:20.765Z,26.95
2022-09-21T01:07:50.845Z,26.95
2022-09-21T01:08:20.931Z,26.96
2022-09-21T01:08:51.012Z,26.95
2022-09-21T01:09:21.092Z,26.94
2022-09-21T01:09:51.184Z,26.95
2022-09-21T01:10:21.263Z,26.94
2022-09-21T01:10:51.372Z,26.95
2022-09-21T01:11:21.435Z,26.94
2022-09-21T01:11:51.511Z,26.92
2022-09-21T01:12:21.592Z,26.92
2022-09-21T01:12:51.677Z,26.95
2022-09-21T01:13:21.759Z,26.94
2022-09-21T01:13:51.840Z,26.95
2022-09-21T01:14:21.919Z,26.95
2022-09-21T01:14:52.003Z,26.94
2022-09-21T01:15:22.089Z,26.92
2022-09-21T01:15:52.166Z,26.94
2022-09-21T01:16:22.279Z,26.95
2022-09-21T01:16:52.265Z,26.94
2022-09-21T01:17:22.383Z,26.92
2022-09-21T01:17:52.375Z,26.95
2022-09-21T01:18:22.373Z,26.94
2022-09-21T01:18:52.494Z,26.92
2022-09-21T01:19:22.497Z,26.94
2022-09-21T01:19:52.488Z,26.94
2022-09-21T01:20:22.608Z,26.94
2022-09-21T01:20:52.724Z,26.92
2022-09-21T01:21:22.716Z,26.92
2022-09-21T01:21:52.834Z,26.94
2022-09-21T01:22:22.830Z,26.92
2022-09-21T01:22:52.821Z,26.94
2022-09-21T01:23:22.940Z,26.92
2022-09-21T01:23:52.931Z,26.94
2022-09-21T01:24:23.051Z,26.94
2022-09-21T01:24:53.166Z,26.92
2022-09-21T01:25:23.282Z,26.92
2022-09-21T01:25:53.354Z,26.92
2022-09-21T01:26:23.309Z,26.91
2022-09-21T01:26:53.426Z,26.92
2022-09-21T01:27:23.418Z,26.92
2022-09-21T01:27:53.535Z,26.91
2022-09-21T01:28:23.654Z,26.91
2022-09-21T01:28:53.724Z,26.91
2022-09-21T01:29:23.739Z,26.92
2022-09-21T01:29:53.858Z,26.92
2022-09-21T01:30:23.854Z,26.91
2022-09-21T01:30:53.875Z,26.92
2022-09-21T01:31:23.908Z,26.92
2022-09-21T01:31:54.135Z,26.92
2022-09-21T01:32:24.005Z,26.88
2022-09-21T01:32:54.122Z,26.89
2022-09-21T01:33:24.131Z,26.89
2022-09-21T01:33:54.132Z,26.91
2022-09-21T01:34:24.246Z,26.91
2022-09-21T01:34:54.370Z,26.91
2022-09-21T01:35:24.361Z,26.88
2022-09-21T01:35:54.477Z,26.91
2022-09-21T01:36:24.600Z,26.89
2022-09-21T01:36:54.590Z,26.89
2022-09-21T01:37:24.709Z,26.89
2022-09-21T01:37:54.823Z,26.89
2022-09-21T01:38:24.821Z,26.92
2022-09-21T01:38:54.942Z,26.89
2022-09-21T01:39:25.058Z,26.91
2022-09-21T01:39:55.058Z,26.89
2022-09-21T01:40:25.140Z,26.89
2022-09-21T01:40:55.136Z,26.91
2022-09-21T01:41:25.155Z,26.89
2022-09-21T01:41:55.129Z,26.89
2022-09-21T01:42:25.244Z,26.89
2022-09-21T01:42:55.241Z,26.91
2022-09-21T01:43:25.242Z,26.89
2022-09-21T01:43:55.358Z,26.89
2022-09-21T01:44:25.358Z,26.89
2022-09-21T01:44:55.350Z,26.89
2022-09-21T01:45:25.510Z,26.88
2022-09-21T01:45:55.504Z,26.88
2022-09-21T01:46:25.481Z,26.87
2022-09-21T01:46:55.618Z,26.88
2022-09-21T01:47:25.609Z,26.91
2022-09-21T01:47:55.603Z,26.88
2022-09-21T01:48:25.720Z,26.87
2022-09-21T01:48:55.718Z,26.91
2022-09-21T01:49:25.717Z,26.88
2022-09-21T01:49:55.710Z,26.89
2022-09-21T01:50:25.845Z,26.88
2022-09-21T01:50:55.843Z,26.85
2022-09-21T01:51:25.962Z,26.87
2022-09-21T01:51:55.955Z,26.88
2022-09-21T01:52:25.952Z,26.88
2022-09-21T01:52:56.074Z,26.88
2022-09-21T01:53:26.078Z,26.85
2022-09-21T01:53:56.068Z,26.87
2022-09-21T01:54:26.183Z,26.87
2022-09-21T01:54:56.297Z,26.87
2022-09-21T01:55:26.445Z,26.88
2022-09-21T01:55:56.434Z,26.87
2022-09-21T01:56:26.551Z,26.87
2022-09-21T01:56:56.711Z,26.88
2022-09-21T01:57:26.662Z,26.88
2022-09-21T01:57:56.779Z,26.88
2022-09-21T01:58:26.895Z,26.87
2022-09-21T01:58:57.034Z,26.88
2022-09-21T01:59:27.132Z,26.88
2022-09-21T01:59:57.130Z,26.88
2022-09-21T02:00:27.265Z,26.84
2022-09-21T02:00:57.293Z,26.85
2022-09-21T02:01:27.287Z,26.87
2022-09-21T02:01:57.421Z,26.87
2022-09-21T02:02:27.415Z,26.87
2022-09-21T02:02:57.550Z,26.84
2022-09-21T02:03:27.546Z,26.85
2022-09-21T02:03:57.539Z,26.84
2022-09-21T02:04:27.536Z,26.87
2022-09-21T02:04:57.527Z,26.85
2022-09-21T02:05:27.654Z,26.87
2022-09-21T02:05:57.643Z,26.88
2022-09-21T02:06:27.734Z,26.84
2022-09-21T02:06:57.821Z,26.81
2022-09-21T02:07:27.897Z,26.84
2022-09-21T02:07:57.996Z,26.84
2022-09-21T02:08:28.127Z,26.88
2022-09-21T02:08:58.207Z,26.85
2022-09-21T02:09:28.296Z,26.85
2022-09-21T02:09:58.376Z,26.84
2022-09-21T02:10:28.474Z,26.85
2022-09-21T02:10:58.553Z,26.85
2022-09-21T02:11:28.636Z,26.84
2022-09-21T02:11:58.713Z,26.82
2022-09-21T02:12:28.817Z,26.84
2022-09-21T02:12:58.881Z,26.87
2022-09-21T02:13:28.961Z,26.82
2022-09-21T02:13:59.062Z,26.84
2022-09-21T02:14:29.163Z,26.82
2022-09-21T02:14:59.255Z,26.85
2022-09-21T02:15:29.340Z,26.82
2022-09-21T02:15:59.460Z,26.82
2022-09-21T02:16:29.438Z,26.84
2022-09-21T02:16:59.547Z,26.84
2022-09-21T02:17:29.665Z,26.84
2022-09-21T02:17:59.657Z,26.84
2022-09-21T02:18:29.775Z,26.84
2022-09-21T02:18:59.917Z,26.84
2022-09-21T02:19:29.913Z,26.82
2022-09-21T02:19:59.908Z,26.84
2022-09-21T02:20:30.024Z,26.82
2022-09-21T02:21:00.022Z,26.84
2022-09-21T02:21:30.016Z,26.84
2022-09-21T02:22:00.139Z,26.82
2022-09-21T02:22:30.131Z,26.82
2022-09-21T02:23:00.127Z,26.82
2022-09-21T02:23:30.252Z,26.82
2022-09-21T02:24:00.249Z,26.82
2022-09-21T02:24:30.247Z,26.84
2022-09-21T02:25:00.368Z,26.84
2022-09-21T02:25:30.382Z,26.81
2022-09-21T02:26:00.378Z,26.81
2022-09-21T02:26:30.504Z,26.82
2022-09-21T02:27:00.500Z,26.79
2022-09-21T02:27:30.496Z,26.79
2022-09-21T02:28:00.637Z,26.84
2022-09-21T02:28:30.615Z,26.82
2022-09-21T02:29:00.614Z,26.79
2022-09-21T02:29:30.736Z,26.81
2022-09-21T02:30:00.728Z,26.82
2022-09-21T02:30:30.727Z,26.79
2022-09-21T02:31:00.920Z,26.81
2022-09-21T02:31:30.948Z,26.81
2022-09-21T02:32:00.931Z,26.82
2022-09-21T02:32:31.051Z,26.81
2022-09-21T02:33:01.051Z,26.82
2022-09-21T02:33:31.172Z,26.79
2022-09-21T02:34:01.164Z,26.79
2022-09-21T02:34:31.280Z,26.82
2022-09-21T02:35:01.279Z,26.82
2022-09-21T02:35:31.278Z,26.79
2022-09-21T02:36:01.287Z,26.82
2022-09-21T02:36:31.283Z,26.79
2022-09-21T02:37:01.279Z,26.82
2022-09-21T02:37:31.288Z,26.81
2022-09-21T02:38:01.275Z,26.79
2022-09-21T02:38:31.396Z,26.79
2022-09-21T02:39:01.389Z,26.82
2022-09-21T02:39:31.389Z,26.81
2022-09-21T02:40:01.550Z,26.81
2022-09-21T02:40:31.616Z,26.81
2022-09-21T02:41:01.570Z,26.81
2022-09-21T02:41:31.690Z,26.78
2022-09-21T02:42:01.807Z,26.79
2022-09-21T02:42:31.930Z,26.81
2022-09-21T02:43:01.947Z,26.79
2022-09-21T02:43:32.063Z,26.78
2022-09-21T02:44:02.036Z,26.78
2022-09-21T02:44:32.152Z,26.78
2022-09-21T02:45:02.270Z,26.81
2022-09-21T02:45:32.292Z,26.79
2022-09-21T02:46:02.287Z,26.78
2022-09-21T02:46:32.332Z,26.78
2022-09-21T02:47:02.304Z,26.78
2022-09-21T02:47:32.421Z,26.78
2022-09-21T02:48:02.742Z,26.77
2022-09-21T02:48:32.611Z,26.78
2022-09-21T02:49:02.727Z,26.79
2022-09-21T02:49:32.732Z,26.78
2022-09-21T02:50:02.757Z,26.75
2022-09-21T02:50:32.760Z,26.78
2022-09-21T02:51:02.878Z,26.77
2022-09-21T02:51:32.880Z,26.78
2022-09-21T02:52:02.897Z,26.79
2022-09-21T02:52:32.894Z,26.77
2022-09-21T02:53:02.895Z,26.79
2022-09-21T02:53:33.011Z,26.78
2022-09-21T02:54:03.009Z,26.79
2022-09-21T02:54:33.010Z,26.77
2022-09-21T02:55:03.125Z,26.79
2022-09-21T02:55:33.123Z,26.79
2022-09-21T02:56:03.242Z,26.81
2022-09-21T02:56:33.363Z,26.78
2022-09-21T02:57:03.507Z,26.79
2022-09-21T02:57:33.505Z,26.81
2022-09-21T02:58:03.492Z,26.84
2022-09-21T02:58:33.635Z,26.82
2022-09-21T02:59:03.610Z,26.82
2022-09-21T02:59:33.729Z,26.85
2022-09-21T03:00:03.847Z,26.82
2022-09-21T03:00:33.887Z,26.84
2022-09-21T03:01:03.922Z,26.87
2022-09-21T03:01:33.970Z,26.88
2022-09-21T03:02:04.024Z,26.87
2022-09-21T03:02:34.033Z,26.85
2022-09-21T03:03:04.153Z,26.88
2022-09-21T03:03:34.148Z,26.88
2022-09-21T03:04:04.144Z,26.88
2022-09-21T03:04:34.284Z,26.89
2022-09-21T03:05:04.279Z,26.89
2022-09-21T03:05:34.399Z,26.91
2022-09-21T03:06:04.391Z,26.91
2022-09-21T03:06:34.487Z,26.89
2022-09-21T03:07:04.566Z,26.91
2022-09-21T03:07:34.649Z,26.92
2022-09-21T03:08:04.734Z,26.94
2022-09-21T03:08:34.811Z,26.94
2022-09-21T03:09:04.892Z,26.94
2022-09-21T03:09:34.981Z,26.94
2022-09-21T03:10:05.057Z,26.94
2022-09-21T03:10:35.137Z,26.96
2022-09-21T03:11:05.246Z,26.96
2022-09-21T03:11:35.323Z,26.95
2022-09-21T03:12:05.401Z,26.96
2022-09-21T03:12:35.485Z,26.96
2022-09-21T03:13:05.566Z,26.98
2022-09-21T03:13:35.730Z,26.96
2022-09-21T03:14:05.708Z,26.98
2022-09-21T03:14:35.686Z,26.96
2022-09-21T03:15:05.771Z,26.99
2022-09-21T03:15:35.941Z,26.96
2022-09-21T03:16:05.987Z,26.99
2022-09-21T03:16:35.957Z,26.99
2022-09-21T03:17:05.948Z,26.99
2022-09-21T03:17:36.065Z,26.99
2022-09-21T03:18:06.183Z,26.99
2022-09-21T03:18:36.326Z,26.99
2022-09-21T03:19:06.388Z,26.99
2022-09-21T03:19:36.447Z,27.01
2022-09-21T03:20:06.413Z,26.99
2022-09-21T03:20:36.541Z,27.01
2022-09-21T03:21:06.528Z,27.02
2022-09-21T03:21:39.174Z,26.99
2022-09-21T03:22:06.735Z,27.02
2022-09-21T03:22:36.724Z,26.98
2022-09-21T03:23:06.722Z,27.02
2022-09-21T03:23:36.716Z,26.98
2022-09-21T03:24:06.719Z,27.02
2022-09-21T03:24:36.719Z,27.02
2022-09-21T03:25:06.735Z,27.01
2022-09-21T03:25:36.722Z,27.01
2022-09-21T03:26:06.723Z,27.01
2022-09-21T03:26:36.836Z,27.03
2022-09-21T03:27:06.838Z,27.01
2022-09-21T03:27:36.840Z,27.01
2022-09-21T03:28:06.958Z,26.99
2022-09-21T03:28:36.953Z,27.02
2022-09-21T03:29:07.212Z,26.99
2022-09-21T03:29:36.983Z,27.02
2022-09-21T03:30:07.102Z,27.01
2022-09-21T03:30:37.093Z,27.02
2022-09-21T03:31:07.280Z,27.01
2022-09-21T03:31:37.264Z,27.01
2022-09-21T03:32:07.267Z,26.99
2022-09-21T03:32:37.373Z,26.98
2022-09-21T03:33:07.492Z,26.98
2022-09-21T03:33:37.487Z,26.99
2022-09-21T03:34:07.606Z,26.99
2022-09-21T03:34:37.717Z,26.98
2022-09-21T03:35:07.717Z,26.98
2022-09-21T03:35:37.836Z,26.99
2022-09-21T03:36:07.956Z,26.96
2022-09-21T03:36:37.964Z,26.98
2022-09-21T03:37:07.980Z,26.98
2022-09-21T03:37:41.217Z,26.96
2022-09-21T03:38:08.121Z,26.96
2022-09-21T03:38:38.115Z,26.98
2022-09-21T03:39:08.235Z,26.95
2022-09-21T03:39:38.235Z,26.96
2022-09-21T03:40:08.387Z,26.96
2022-09-21T03:40:38.562Z,26.96
2022-09-21T03:41:08.566Z,26.96
2022-09-21T03:41:38.681Z,26.98
2022-09-21T03:42:08.800Z,26.96
2022-09-21T03:42:38.801Z,26.95
2022-09-21T03:43:08.801Z,26.94
2022-09-21T03:43:38.915Z,26.96
2022-09-21T03:44:08.917Z,26.96
2022-09-21T03:44:38.943Z,26.98
2022-09-21T03:45:08.919Z,26.95
2022-09-21T03:45:38.912Z,26.98
2022-09-21T03:46:09.001Z,26.99
2022-09-21T03:46:39.014Z,27.02
2022-09-21T03:47:09.029Z,27.01
2022-09-21T03:47:39.050Z,27.01
2022-09-21T03:48:09.168Z,27.03
2022-09-21T03:48:39.279Z,27.03
2022-09-21T03:49:09.461Z,27.05
2022-09-21T03:49:39.478Z,27.06
2022-09-21T03:50:10.325Z,27.06
2022-09-21T03:50:39.619Z,27.10
2022-09-21T03:51:09.736Z,27.09
2022-09-21T03:51:39.730Z,27.15
2022-09-21T03:52:09.746Z,27.15
2022-09-21T03:52:39.745Z,27.15
2022-09-21T03:53:09.854Z,27.17
2022-09-21T03:53:39.851Z,27.17
2022-09-21T03:54:09.970Z,27.23
2022-09-21T03:54:39.964Z,27.20
2022-09-21T03:55:10.104Z,27.20
2022-09-21T03:55:40.095Z,27.23
2022-09-21T03:56:10.215Z,27.24
2022-09-21T03:56:40.335Z,27.23
2022-09-21T03:57:10.449Z,27.29
2022-09-21T03:57:40.566Z,27.30
2022-09-21T03:58:10.564Z,27.30
2022-09-21T03:58:40.677Z,27.29
2022-09-21T03:59:14.087Z,27.30
2022-09-21T03:59:40.812Z,27.34
2022-09-21T04:00:10.826Z,27.33
2022-09-21T04:00:40.919Z,27.34
2022-09-21T04:01:10.954Z,27.34
2022-09-21T04:01:41.061Z,27.34
2022-09-21T04:02:11.070Z,27.36
2022-09-21T04:02:41.123Z,27.37
2022-09-21T04:03:11.114Z,27.40
2022-09-21T04:03:41.107Z,27.41
2022-09-21T04:04:11.222Z,27.41
2022-09-21T04:04:41.227Z,27.43
2022-09-21T04:05:11.224Z,27.44
2022-09-21T04:05:41.222Z,27.46
2022-09-21T04:06:11.329Z,27.46
2022-09-21T04:06:41.406Z,27.49
2022-09-21T04:07:11.487Z,27.49
2022-09-21T04:07:41.727Z,27.49
2022-09-21T04:08:11.681Z,27.49
2022-09-21T04:08:43.711Z,27.50
2022-09-21T04:09:11.862Z,27.53
2022-09-21T04:09:41.936Z,27.53
2022-09-21T04:10:12.020Z,27.56
2022-09-21T04:10:42.110Z,27.56
2022-09-21T04:11:12.189Z,27.57
2022-09-21T04:11:42.277Z,27.57
2022-09-21T04:12:12.355Z,27.58
2022-09-21T04:12:42.432Z,27.60
2022-09-21T04:13:12.517Z,27.60
2022-09-21T04:13:42.595Z,27.58
2022-09-21T04:14:12.672Z,27.60
2022-09-21T04:14:42.752Z,27.58
2022-09-21T04:15:12.834Z,27.60
2022-09-21T04:15:42.994Z,27.61
2022-09-21T04:16:13.003Z,27.62
2022-09-21T04:16:42.984Z,27.64
2022-09-21T04:17:13.102Z,27.64
2022-09-21T04:17:43.104Z,27.65
2022-09-21T04:18:13.097Z,27.64
2022-09-21T04:18:43.090Z,27.67
2022-09-21T04:19:13.085Z,27.67
2022-09-21T04:19:43.203Z,27.67
2022-09-21T04:20:13.199Z,27.68
2022-09-21T04:20:43.198Z,27.67
2022-09-21T04:21:13.314Z,27.68
2022-09-21T04:21:43.330Z,27.71
2022-09-21T04:22:13.324Z,27.72
2022-09-21T04:22:43.832Z,27.72
2022-09-21T04:23:13.545Z,27.74
2022-09-21T04:23:43.542Z,27.71
2022-09-21T04:24:13.660Z,27.74
2022-09-21T04:24:43.784Z,27.74
2022-09-21T04:25:13.789Z,27.74
2022-09-21T04:25:43.905Z,27.72
2022-09-21T04:26:14.027Z,27.75
2022-09-21T04:26:44.037Z,27.77
2022-09-21T04:27:14.029Z,27.77
2022-09-21T04:27:44.025Z,27.77
2022-09-21T04:28:14.143Z,27.78
2022-09-21T04:28:44.257Z,27.77
2022-09-21T04:29:14.374Z,27.79
2022-09-21T04:29:44.372Z,27.79
2022-09-21T04:30:14.483Z,27.81
2022-09-21T04:30:44.522Z,27.81
2022-09-21T04:31:14.781Z,27.79
2022-09-21T04:31:44.528Z,27.81
2022-09-21T04:32:14.519Z,27.79
2022-09-21T04:32:44.513Z,27.84
2022-09-21T04:33:14.632Z,27.84
2022-09-21T04:33:44.749Z,27.84
2022-09-21T04:34:14.749Z,27.84
2022-09-21T04:34:44.860Z,27.85
2022-09-21T04:35:14.984Z,27.87
2022-09-21T04:35:44.995Z,27.85
2022-09-21T04:36:15.011Z,27.87
2022-09-21T04:36:45.024Z,27.85
2022-09-21T04:37:15.018Z,27.87
2022-09-21T04:37:45.130Z,27.88
2022-09-21T04:38:15.128Z,27.85
2022-09-21T04:38:45.246Z,27.87
2022-09-21T04:39:15.361Z,27.87
2022-09-21T04:39:45.358Z,27.88
2022-09-21T04:40:15.395Z,27.91
2022-09-21T04:40:45.386Z,27.88
2022-09-21T04:41:15.382Z,27.88
2022-09-21T04:41:45.395Z,27.89
2022-09-21T04:42:15.399Z,27.89
2022-09-21T04:42:45.384Z,27.92
2022-09-21T04:43:18.567Z,27.93
2022-09-21T04:43:45.518Z,27.89
2022-09-21T04:44:15.517Z,27.92
2022-09-21T04:44:45.510Z,27.92
2022-09-21T04:45:15.506Z,27.92
2022-09-21T04:45:45.500Z,27.92
2022-09-21T04:46:15.705Z,27.92
2022-09-21T04:46:45.732Z,27.92
2022-09-21T04:47:15.716Z,27.93
2022-09-21T04:47:45.715Z,27.93
2022-09-21T04:48:15.709Z,27.95
2022-09-21T04:48:45.707Z,27.93
2022-09-21T04:49:15.830Z,27.95
2022-09-21T04:49:45.955Z,27.95
2022-09-21T04:50:16.064Z,27.95
2022-09-21T04:50:46.059Z,27.93
2022-09-21T04:51:16.179Z,27.91
2022-09-21T04:51:46.291Z,27.93
2022-09-21T04:52:19.081Z,27.95
2022-09-21T04:52:46.392Z,27.95
2022-09-21T04:53:16.505Z,27.96
2022-09-21T04:53:46.625Z,27.98
2022-09-21T04:54:16.627Z,27.95
2022-09-21T04:54:46.619Z,27.98
2022-09-21T04:55:16.739Z,27.98
2022-09-21T04:55:46.745Z,27.98
2022-09-21T04:56:16.738Z,28.01
2022-09-21T04:56:46.732Z,27.98
2022-09-21T04:57:16.735Z,27.98
2022-09-21T04:57:46.723Z,27.96
2022-09-21T04:58:19.252Z,27.98
2022-09-21T04:58:46.830Z,27.99
2022-09-21T04:59:16.952Z,27.99
2022-09-21T04:59:46.943Z,28.01
2022-09-21T05:00:16.943Z,27.98
2022-09-21T05:00:46.934Z,27.99
2022-09-21T05:01:17.096Z,27.96
2022-09-21T05:01:47.092Z,28.01
2022-09-21T05:02:17.222Z,27.99
2022-09-21T05:02:47.183Z,27.98
2022-09-21T05:03:17.225Z,27.99
2022-09-21T05:03:47.282Z,27.99
2022-09-21T05:04:17.292Z,27.99
2022-09-21T05:04:50.820Z,27.99
2022-09-21T05:05:17.341Z,27.96
2022-09-21T05:05:47.364Z,27.98
2022-09-21T05:06:17.348Z,27.99
2022-09-21T05:06:47.446Z,27.99
2022-09-21T05:07:17.529Z,27.98
2022-09-21T05:07:47.605Z,27.98
2022-09-21T05:08:17.691Z,27.96
2022-09-21T05:08:47.766Z,27.96
2022-09-21T05:09:17.846Z,27.95
2022-09-21T05:09:47.930Z,27.92
2022-09-21T05:10:18.007Z,27.88
2022-09-21T05:10:48.086Z,27.88
2022-09-21T05:11:18.166Z,27.88
2022-09-21T05:11:48.250Z,27.84
2022-09-21T05:12:18.348Z,27.82
2022-09-21T05:12:48.435Z,27.82
2022-09-21T05:13:19.919Z,27.78
2022-09-21T05:13:48.621Z,27.78
2022-09-21T05:14:18.698Z,27.74
2022-09-21T05:14:48.776Z,27.74
2022-09-21T05:15:18.864Z,27.72
2022-09-21T05:15:48.964Z,27.71
2022-09-21T05:16:19.039Z,27.68
2022-09-21T05:16:49.206Z,27.65
2022-09-21T05:17:19.248Z,27.60
2022-09-21T05:17:49.195Z,27.61
2022-09-21T05:18:19.193Z,27.58
2022-09-21T05:18:49.308Z,27.58
2022-09-21T05:19:19.421Z,27.57
2022-09-21T05:19:49.536Z,27.57
2022-09-21T05:20:19.653Z,27.54
2022-09-21T05:20:49.766Z,27.50
2022-09-21T05:21:19.762Z,27.47
2022-09-21T05:21:49.752Z,27.46
2022-09-21T05:22:19.877Z,27.46
2022-09-21T05:22:49.876Z,27.47
2022-09-21T05:23:19.869Z,27.44
2022-09-21T05:23:49.985Z,27.41
2022-09-21T05:24:20.103Z,27.41
2022-09-21T05:24:50.220Z,27.43
2022-09-21T05:25:20.227Z,27.46
2022-09-21T05:25:50.224Z,27.44
2022-09-21T05:26:20.340Z,27.44
2022-09-21T05:26:50.458Z,27.49
2022-09-21T05:27:20.576Z,27.50
2022-09-21T05:27:50.564Z,27.50
2022-09-21T05:28:20.686Z,27.49
2022-09-21T05:28:50.801Z,27.54
2022-09-21T05:29:20.908Z,27.54
2022-09-21T05:29:50.907Z,27.53
2022-09-21T05:30:20.900Z,27.56
2022-09-21T05:31:07.400Z,27.56
2022-09-21T05:31:21.064Z,27.58
2022-09-21T05:31:51.086Z,27.57
2022-09-21T05:32:21.045Z,27.58
2022-09-21T05:32:51.244Z,27.58
2022-09-21T05:33:21.202Z,27.58
2022-09-21T05:33:51.325Z,27.58
2022-09-21T05:34:21.319Z,27.58
2022-09-21T05:34:51.323Z,27.61
2022-09-21T05:35:21.317Z,27.62
2022-09-21T05:35:51.437Z,27.64
2022-09-21T05:36:21.556Z,27.61
2022-09-21T05:36:51.561Z,27.61
2022-09-21T05:37:21.552Z,27.61
2022-09-21T05:37:51.670Z,27.61
2022-09-21T05:38:21.674Z,27.62
2022-09-21T05:38:51.786Z,27.62
2022-09-21T05:39:21.899Z,27.62
2022-09-21T05:39:51.896Z,27.61
2022-09-21T05:40:21.987Z,27.64
2022-09-21T05:40:52.000Z,27.64
2022-09-21T05:41:22.116Z,27.62
2022-09-21T05:41:52.235Z,27.64
2022-09-21T05:42:22.225Z,27.64
2022-09-21T05:42:52.343Z,27.65
2022-09-21T05:43:22.335Z,27.64
2022-09-21T05:43:52.456Z,27.64
2022-09-21T05:44:22.568Z,27.67
2022-09-21T05:44:52.684Z,27.67
2022-09-21T05:45:22.799Z,27.67
2022-09-21T05:45:52.959Z,27.65
2022-09-21T05:46:23.040Z,27.64
2022-09-21T05:46:56.193Z,27.68
2022-09-21T05:47:23.105Z,27.65
2022-09-21T05:47:53.239Z,27.65
2022-09-21T05:48:23.213Z,27.65
2022-09-21T05:48:53.208Z,27.61
2022-09-21T05:49:23.318Z,27.62
2022-09-21T05:49:53.434Z,27.62
2022-09-21T05:50:23.551Z,27.65
2022-09-21T05:50:53.545Z,27.61
2022-09-21T05:51:23.660Z,27.61
2022-09-21T05:51:53.781Z,27.62
2022-09-21T05:52:23.898Z,27.64
2022-09-21T05:52:54.015Z,27.60
2022-09-21T05:53:24.004Z,27.60
2022-09-21T05:53:54.120Z,27.60
2022-09-21T05:54:24.238Z,27.57
2022-09-21T05:54:54.351Z,27.57
2022-09-21T05:55:24.346Z,27.54
2022-09-21T05:55:54.464Z,27.56
2022-09-21T05:56:24.589Z,27.50
2022-09-21T05:56:54.711Z,27.47
2022-09-21T05:57:28.668Z,27.44
2022-09-21T05:57:54.720Z,27.44
2022-09-21T05:58:24.715Z,27.41
2022-09-21T05:58:54.960Z,27.41
2022-09-21T05:59:24.841Z,27.40
2022-09-21T05:59:54.833Z,27.40
2022-09-21T06:00:24.951Z,27.40
2022-09-21T06:00:55.135Z,27.41
2022-09-21T06:01:25.167Z,27.40
2022-09-21T06:01:55.164Z,27.40
2022-09-21T06:02:25.211Z,27.39
2022-09-21T06:02:55.213Z,27.43
2022-09-21T06:03:25.186Z,27.41
2022-09-21T06:03:55.303Z,27.41
2022-09-21T06:04:25.299Z,27.43
2022-09-21T06:04:55.292Z,27.40
2022-09-21T06:05:25.407Z,27.41
2022-09-21T06:05:55.531Z,27.43
2022-09-21T06:06:25.845Z,27.41
2022-09-21T06:06:55.701Z,27.41
2022-09-21T06:07:25.777Z,27.39
2022-09-21T06:07:55.859Z,27.41
2022-09-21T06:08:25.945Z,27.43
2022-09-21T06:08:56.027Z,27.41
2022-09-21T06:09:26.105Z,27.39
2022-09-21T06:09:56.184Z,27.40
2022-09-21T06:10:26.270Z,27.41
2022-09-21T06:10:56.354Z,27.41
2022-09-21T06:11:26.448Z,27.43
2022-09-21T06:11:56.534Z,27.44
2022-09-21T06:12:26.613Z,27.41
2022-09-21T06:12:56.690Z,27.43
2022-09-21T06:13:26.771Z,27.43
2022-09-21T06:13:56.854Z,27.43
2022-09-21T06:14:26.935Z,27.44
2022-09-21T06:14:57.011Z,27.46
2022-09-21T06:15:27.098Z,27.43
2022-09-21T06:15:57.172Z,27.43
2022-09-21T06:16:27.205Z,27.43
2022-09-21T06:16:57.234Z,27.43
2022-09-21T06:17:27.228Z,27.43
2022-09-21T06:17:57.252Z,27.41
2022-09-21T06:18:27.227Z,27.43
2022-09-21T06:18:57.344Z,27.43
2022-09-21T06:19:27.337Z,27.43
2022-09-21T06:19:57.330Z,27.43
2022-09-21T06:20:27.529Z,27.41
2022-09-21T06:20:57.540Z,27.41
2022-09-21T06:21:27.548Z,27.41
2022-09-21T06:21:57.541Z,27.41
2022-09-21T06:22:27.538Z,27.44
2022-09-21T06:22:57.656Z,27.44
2022-09-21T06:23:27.776Z,27.46
2022-09-21T06:23:57.775Z,27.44
2022-09-21T06:24:27.897Z,27.47
2022-09-21T06:24:58.012Z,27.47
2022-09-21T06:25:28.125Z,27.47
2022-09-21T06:25:58.889Z,27.46
2022-09-21T06:26:28.261Z,27.47
2022-09-21T06:26:58.252Z,27.46